Antigo, Wisconsin
Current Conditions -  °F | °C
As of 2:55 AM on Monday 24 Nov 2014 (Local Time) from KAIG Reporting Station
Drizzle Drizzle  
Wind Chill: 34°   Ceiling: 400
Heat Index: 37°   Visibility: 1mi
Dew Point: 37°   Wind: 5mph
Humidity: 100%   Direction: 330°NNW
Pressure: 29.05"   Gusts: NA
Location:  45.14°N, 89.15°W
Report Text: KAIG 240855Z AUTO 33004KT 1SM DZ BKN004 OVC013 03/03 A2905 RMK AO2 60001 T00300030
Loading
Personal Weather Stations






























Interactive Weather Map New forecast layout! Learn more

10-Day Weather Forecast

Advertisements
Track Severe Weather on mobile